Time;durP1;ratioP1;P1;durP2;ratioP2;P2;SDS_P1;SDS_P2;PMS_P1;PMS_P2;Temp;Humidity;BMP_temperature;BMP_pressure;BME280_temperature;BME280_humidity;BME280_pressure;Samples;Min_cycle;Max_cycle;Signal;HPM_P1;HPM_P2
2022/12/28 00:00:19;;;;;;;67.22;36.40;;;;;;;;;;1031554;28;20426;-76
2022/12/28 00:00:49;;;;;;;75.75;36.47;;;;;;;;;;1035731;28;20121;-76
2022/12/28 00:01:21;;;;;;;71.95;37.85;;;;;;;;;;1035656;28;20065;-76
2022/12/28 00:01:51;;;;;;;64.40;35.38;;;;;;;;;;1036068;28;20109;-76
2022/12/28 00:02:22;;;;;;;73.95;37.05;;;;;;;;;;1034738;28;20394;-76
2022/12/28 00:02:54;;;;;;;80.75;34.67;;;;;;;;;;1036194;28;20116;-76
2022/12/28 00:03:26;;;;;;;65.75;30.23;;;;;;;;;;1036094;28;20021;-76
2022/12/28 00:03:58;;;;;;;41.92;24.95;;;;;;;;;;1036285;28;20113;-76
2022/12/28 00:04:28;;;;;;;51.25;26.23;;;;;;;;;;1035119;28;20065;-76
2022/12/28 00:04:59;;;;;;;49.70;23.20;;;;;;;;;;1035702;28;20079;-76
2022/12/28 00:05:29;;;;;;;55.85;25.63;;;;;;;;;;1035865;28;20018;-76
2022/12/28 00:06:01;;;;;;;63.95;27.15;;;;;;;;;;1035782;28;20474;-76
2022/12/28 00:06:33;;;;;;;62.90;28.00;;;;;;;;;;1035854;28;20031;-76
2022/12/28 00:07:03;;;;;;;58.65;26.77;;;;;;;;;;1035788;28;20200;-76
2022/12/28 00:07:34;;;;;;;56.13;25.98;;;;;;;;;;1035824;28;20115;-76
2022/12/28 00:08:05;;;;;;;53.53;30.08;;;;;;;;;;1036138;28;20018;-76
2022/12/28 00:08:35;;;;;;;64.63;28.55;;;;;;;;;;1036151;28;20857;-76
2022/12/28 00:09:09;;;;;;;46.30;26.83;;;;;;;;;;1036186;28;20107;-76
2022/12/28 00:09:40;;;;;;;65.40;30.38;;;;;;;;;;1036073;28;20538;-76
2022/12/28 00:10:10;;;;;;;59.22;31.42;;;;;;;;;;1035723;28;20032;-76
2022/12/28 00:10:41;;;;;;;54.20;28.15;;;;;;;;;;1035675;28;20022;-76
2022/12/28 00:11:16;;;;;;;60.55;31.45;;;;;;;;;;1035736;28;20465;-76
2022/12/28 00:11:47;;;;;;;63.88;29.48;;;;;;;;;;1035968;28;20084;-76
2022/12/28 00:12:17;;;;;;;50.72;29.15;;;;;;;;;;1036119;28;20036;-76
2022/12/28 00:12:48;;;;;;;76.07;31.85;;;;;;;;;;1036114;28;20056;-76
2022/12/28 00:13:18;;;;;;;56.38;29.20;;;;;;;;;;1035992;28;20029;-76
2022/12/28 00:13:49;;;;;;;70.93;34.10;;;;;;;;;;1036109;28;20461;-76
2022/12/28 00:14:20;;;;;;;49.65;32.58;;;;;;;;;;1036026;28;20540;-76
2022/12/28 00:14:50;;;;;;;64.70;31.52;;;;;;;;;;1035727;28;20116;-76
2022/12/28 00:15:21;;;;;;;67.38;31.42;;;;;;;;;;1035780;28;20099;-76
2022/12/28 00:15:51;;;;;;;61.25;30.08;;;;;;;;;;1036016;28;20026;-75
2022/12/28 00:16:24;;;;;;;65.45;29.50;;;;;;;;;;1037512;28;20030;-75
2022/12/28 00:16:55;;;;;;;63.40;29.58;;;;;;;;;;1036713;28;20029;-76
2022/12/28 00:17:25;;;;;;;52.40;29.52;;;;;;;;;;1036053;28;20018;-75
2022/12/28 00:17:56;;;;;;;62.05;27.52;;;;;;;;;;1036227;28;20088;-75
2022/12/28 00:18:27;;;;;;;54.50;27.30;;;;;;;;;;1035989;28;20033;-75
2022/12/28 00:18:58;;;;;;;71.10;33.03;;;;;;;;;;1036171;28;20032;-75
2022/12/28 00:19:29;;;;;;;85.35;43.85;;;;;;;;;;1035972;28;20018;-76
2022/12/28 00:19:59;;;;;;;104.60;48.42;;;;;;;;;;1034540;28;20030;-76
2022/12/28 00:20:30;;;;;;;150.35;69.10;;;;;;;;;;1035525;28;20532;-76
2022/12/28 00:21:01;;;;;;;141.75;63.35;;;;;;;;;;1035727;28;20017;-76
2022/12/28 00:21:32;;;;;;;156.20;70.65;;;;;;;;;;1035767;28;20025;-76
2022/12/28 00:22:02;;;;;;;149.98;65.90;;;;;;;;;;1035699;28;20025;-76
2022/12/28 00:22:33;;;;;;;133.63;60.95;;;;;;;;;;1036071;28;20076;-76
2022/12/28 00:23:04;;;;;;;154.48;68.32;;;;;;;;;;1034967;28;20074;-76
2022/12/28 00:23:35;;;;;;;173.75;74.75;;;;;;;;;;1036084;28;20041;-76
2022/12/28 00:24:06;;;;;;;158.23;74.43;;;;;;;;;;1035668;28;20460;-76
2022/12/28 00:24:36;;;;;;;138.23;65.35;;;;;;;;;;1035621;28;20109;-75
2022/12/28 00:25:07;;;;;;;124.47;56.65;;;;;;;;;;1034063;28;20113;-75
2022/12/28 00:25:38;;;;;;;126.35;56.47;;;;;;;;;;1034254;28;20049;-76
2022/12/28 00:26:10;;;;;;;91.43;41.25;;;;;;;;;;1030900;28;20026;-76
2022/12/28 00:26:41;;;;;;;103.05;45.95;;;;;;;;;;1032827;28;20025;-76
2022/12/28 00:27:11;;;;;;;97.32;41.53;;;;;;;;;;1033426;28;20026;-76
2022/12/28 00:27:42;;;;;;;63.25;32.08;;;;;;;;;;1034671;28;20030;-76
2022/12/28 00:28:12;;;;;;;65.00;30.38;;;;;;;;;;1035663;28;20029;-76
2022/12/28 00:28:43;;;;;;;62.00;30.55;;;;;;;;;;1035696;28;20037;-76
2022/12/28 00:29:14;;;;;;;75.57;32.22;;;;;;;;;;1035723;28;20032;-76
2022/12/28 00:29:44;;;;;;;62.55;29.08;;;;;;;;;;1035586;28;20023;-76
2022/12/28 00:30:15;;;;;;;68.25;27.95;;;;;;;;;;1035640;28;20545;-76
2022/12/28 00:30:46;;;;;;;68.05;28.48;;;;;;;;;;1035732;28;20022;-76
2022/12/28 00:31:17;;;;;;;60.92;27.15;;;;;;;;;;1035667;28;20133;-76
2022/12/28 00:31:47;;;;;;;60.42;26.65;;;;;;;;;;1035693;28;20040;-76
2022/12/28 00:32:18;;;;;;;66.43;26.83;;;;;;;;;;1035669;28;20539;-76
2022/12/28 00:32:49;;;;;;;60.10;26.20;;;;;;;;;;1035815;28;20506;-76
2022/12/28 00:33:19;;;;;;;59.10;26.25;;;;;;;;;;1036079;28;20121;-76
2022/12/28 00:33:50;;;;;;;79.25;30.15;;;;;;;;;;1036097;28;20381;-76
2022/12/28 00:34:20;;;;;;;61.55;28.05;;;;;;;;;;1035568;28;20112;-76
2022/12/28 00:34:51;;;;;;;74.82;28.25;;;;;;;;;;1035827;28;20073;-76
2022/12/28 00:35:21;;;;;;;75.53;29.73;;;;;;;;;;1035765;28;20056;-76
2022/12/28 00:35:55;;;;;;;87.95;32.33;;;;;;;;;;1035705;28;20061;-76
2022/12/28 00:36:26;;;;;;;97.90;37.72;;;;;;;;;;1032967;28;20029;-76
2022/12/28 00:36:56;;;;;;;115.90;41.97;;;;;;;;;;1033624;28;20052;-76
2022/12/28 00:37:27;;;;;;;115.88;43.95;;;;;;;;;;1033202;28;20676;-76
2022/12/28 00:37:57;;;;;;;133.02;48.38;;;;;;;;;;1035543;28;20030;-76
2022/12/28 00:38:32;;;;;;;144.77;49.08;;;;;;;;;;1034329;28;20028;-76
2022/12/28 00:39:02;;;;;;;114.15;42.42;;;;;;;;;;1035700;28;20087;-76
2022/12/28 00:39:33;;;;;;;134.15;43.50;;;;;;;;;;1034617;28;20029;-76
2022/12/28 00:40:04;;;;;;;131.55;43.55;;;;;;;;;;1035213;28;20028;-76
2022/12/28 00:40:34;;;;;;;122.78;41.80;;;;;;;;;;1035545;28;20022;-75
2022/12/28 00:41:05;;;;;;;126.70;43.35;;;;;;;;;;1035564;28;20033;-75
2022/12/28 00:41:36;;;;;;;110.20;39.42;;;;;;;;;;1034713;28;20026;-75
2022/12/28 00:42:06;;;;;;;98.70;36.53;;;;;;;;;;1035823;28;20448;-76
2022/12/28 00:42:37;;;;;;;84.82;35.40;;;;;;;;;;1036026;28;20474;-76
2022/12/28 00:43:07;;;;;;;85.75;34.45;;;;;;;;;;1035963;28;20080;-76
2022/12/28 00:43:38;;;;;;;67.80;27.58;;;;;;;;;;1035918;28;20069;-76
2022/12/28 00:44:08;;;;;;;70.72;26.38;;;;;;;;;;1035396;28;20029;-76
2022/12/28 00:44:39;;;;;;;83.28;28.38;;;;;;;;;;1035601;28;20092;-75
2022/12/28 00:45:10;;;;;;;79.05;29.73;;;;;;;;;;1035545;28;20032;-76
2022/12/28 00:45:47;;;;;;;80.38;27.70;;;;;;;;;;1035505;28;20136;-76
2022/12/28 00:46:17;;;;;;;71.93;26.83;;;;;;;;;;1034910;28;20026;-76
2022/12/28 00:46:48;;;;;;;71.80;27.75;;;;;;;;;;1035677;28;20109;-76
2022/12/28 00:47:18;;;;;;;73.40;27.48;;;;;;;;;;1035733;28;20025;-76
2022/12/28 00:47:49;;;;;;;83.30;30.88;;;;;;;;;;1035397;28;20022;-76
2022/12/28 00:48:20;;;;;;;111.68;38.90;;;;;;;;;;1034546;28;20021;-76
2022/12/28 00:48:50;;;;;;;111.38;42.83;;;;;;;;;;1035461;28;20026;-76
2022/12/28 00:49:21;;;;;;;126.32;46.55;;;;;;;;;;1035690;28;20053;-76
2022/12/28 00:49:51;;;;;;;109.10;43.08;;;;;;;;;;1034411;28;20072;-76
2022/12/28 00:50:22;;;;;;;92.55;41.75;;;;;;;;;;1035540;28;20470;-76
2022/12/28 00:50:59;;;;;;;105.88;40.92;;;;;;;;;;1036111;28;20492;-76
2022/12/28 00:51:30;;;;;;;81.15;36.22;;;;;;;;;;1035364;28;20037;-76
2022/12/28 00:52:00;;;;;;;76.50;32.13;;;;;;;;;;1035704;28;20454;-76
2022/12/28 00:52:31;;;;;;;65.20;27.58;;;;;;;;;;1035559;28;20111;-76
2022/12/28 00:53:02;;;;;;;63.17;30.10;;;;;;;;;;1035647;28;20028;-76
2022/12/28 00:53:32;;;;;;;92.97;36.53;;;;;;;;;;1035401;28;20032;-76
2022/12/28 00:54:03;;;;;;;85.43;34.42;;;;;;;;;;1035682;28;20441;-76
2022/12/28 00:54:33;;;;;;;85.47;32.50;;;;;;;;;;1035536;28;20030;-76
2022/12/28 00:55:04;;;;;;;86.60;34.20;;;;;;;;;;1036171;28;20048;-76
2022/12/28 00:55:35;;;;;;;82.90;34.97;;;;;;;;;;1035891;28;20033;-76
2022/12/28 00:56:10;;;;;;;82.05;34.17;;;;;;;;;;1035511;28;20045;-76
2022/12/28 00:56:45;;;;;;;87.80;34.17;;;;;;;;;;1034891;28;20363;-76
2022/12/28 00:57:15;;;;;;;73.35;33.78;;;;;;;;;;1034991;28;20490;-76
2022/12/28 00:57:46;;;;;;;70.80;31.60;;;;;;;;;;1035474;28;20080;-76
2022/12/28 00:58:16;;;;;;;77.82;31.90;;;;;;;;;;1035603;28;20022;-76
2022/12/28 00:58:47;;;;;;;76.45;31.75;;;;;;;;;;1035700;28;20544;-76
2022/12/28 00:59:18;;;;;;;78.50;33.35;;;;;;;;;;1035643;28;20513;-76
2022/12/28 00:59:48;;;;;;;81.10;37.42;;;;;;;;;;1035563;28;20026;-76
2022/12/28 01:00:19;;;;;;;91.90;38.67;;;;;;;;;;1035354;28;20068;-76
2022/12/28 01:00:49;;;;;;;95.97;36.53;;;;;;;;;;1035993;28;20070;-76
2022/12/28 01:01:21;;;;;;;82.07;35.03;;;;;;;;;;1035818;28;20034;-76
2022/12/28 01:01:51;;;;;;;73.90;34.33;;;;;;;;;;1035422;28;20030;-76
2022/12/28 01:02:22;;;;;;;58.78;27.70;;;;;;;;;;1035014;28;20421;-76
2022/12/28 01:02:53;;;;;;;93.40;37.42;;;;;;;;;;1033221;28;20026;-76
2022/12/28 01:03:24;;;;;;;80.35;34.78;;;;;;;;;;1033764;28;20409;-75
2022/12/28 01:03:55;;;;;;;99.35;34.13;;;;;;;;;;1035490;28;20021;-75
2022/12/28 01:04:26;;;;;;;88.82;34.63;;;;;;;;;;1035402;28;20337;-76
2022/12/28 01:04:56;;;;;;;82.75;36.53;;;;;;;;;;1035599;28;20513;-76
2022/12/28 01:05:27;;;;;;;97.22;35.90;;;;;;;;;;1032531;28;20092;-76
2022/12/28 01:05:57;;;;;;;96.03;40.35;;;;;;;;;;1033759;28;20026;-76
2022/12/28 01:06:28;;;;;;;113.05;40.90;;;;;;;;;;1029465;28;20034;-76
2022/12/28 01:06:59;;;;;;;111.78;43.78;;;;;;;;;;1030848;28;20022;-76
2022/12/28 01:07:29;;;;;;;100.15;42.53;;;;;;;;;;1034627;28;20025;-76
2022/12/28 01:08:00;;;;;;;111.43;41.88;;;;;;;;;;1034959;28;20482;-76
2022/12/28 01:08:30;;;;;;;132.15;48.60;;;;;;;;;;1034850;28;20025;-76
2022/12/28 01:09:01;;;;;;;142.50;49.63;;;;;;;;;;1035859;28;20025;-76
2022/12/28 01:09:31;;;;;;;123.93;47.33;;;;;;;;;;1035780;28;20505;-76
2022/12/28 01:10:02;;;;;;;116.05;43.25;;;;;;;;;;1034580;28;20438;-76
2022/12/28 01:10:33;;;;;;;118.25;46.60;;;;;;;;;;1035484;28;20510;-76
2022/12/28 01:11:14;;;;;;;110.78;44.33;;;;;;;;;;1035423;28;20054;-76
2022/12/28 01:11:45;;;;;;;111.72;39.47;;;;;;;;;;1035086;28;20453;-76
2022/12/28 01:12:16;;;;;;;110.72;38.75;;;;;;;;;;1035689;28;20053;-76
2022/12/28 01:12:46;;;;;;;94.80;37.85;;;;;;;;;;1034571;28;20021;-76
2022/12/28 01:13:17;;;;;;;107.97;36.47;;;;;;;;;;1035365;28;20028;-76
2022/12/28 01:13:48;;;;;;;100.60;37.83;;;;;;;;;;1035397;28;20125;-76
2022/12/28 01:14:18;;;;;;;92.43;36.35;;;;;;;;;;1035531;28;20029;-76
2022/12/28 01:14:49;;;;;;;100.40;34.78;;;;;;;;;;1035445;28;20661;-76
2022/12/28 01:15:20;;;;;;;92.88;38.90;;;;;;;;;;1035499;28;20049;-76
2022/12/28 01:15:50;;;;;;;94.18;37.25;;;;;;;;;;1035459;28;20037;-76
2022/12/28 01:16:23;;;;;;;169.50;60.63;;;;;;;;;;1035428;28;20029;-76
2022/12/28 01:16:53;;;;;;;118.75;46.95;;;;;;;;;;1035886;28;20065;-76
2022/12/28 01:17:24;;;;;;;122.55;44.35;;;;;;;;;;1035844;28;20018;-76
2022/12/28 01:17:54;;;;;;;179.02;59.50;;;;;;;;;;1035290;28;20022;-76
2022/12/28 01:18:25;;;;;;;154.73;52.42;;;;;;;;;;1033504;28;20021;-76
2022/12/28 01:18:57;;;;;;;170.75;62.53;;;;;;;;;;1032739;28;20417;-76
2022/12/28 01:19:28;;;;;;;218.50;75.38;;;;;;;;;;1032347;28;20140;-76
2022/12/28 01:19:59;;;;;;;316.20;111.55;;;;;;;;;;1035392;28;20593;-76
2022/12/28 01:20:29;;;;;;;267.50;90.72;;;;;;;;;;1034690;28;20561;-76
2022/12/28 01:21:06;;;;;;;293.05;100.65;;;;;;;;;;1035681;28;20021;-76
2022/12/28 01:21:37;;;;;;;280.20;98.07;;;;;;;;;;1035013;28;20203;-77
2022/12/28 01:22:09;;;;;;;328.40;112.68;;;;;;;;;;1036291;28;20826;-77
2022/12/28 01:22:39;;;;;;;264.15;92.18;;;;;;;;;;1035165;28;20031;-78
2022/12/28 01:23:10;;;;;;;255.52;95.95;;;;;;;;;;1035714;28;20140;-78
2022/12/28 01:23:40;;;;;;;316.15;112.70;;;;;;;;;;1035124;28;20037;-78
2022/12/28 01:24:11;;;;;;;319.33;109.72;;;;;;;;;;1035064;28;20030;-78
2022/12/28 01:24:44;;;;;;;322.20;112.93;;;;;;;;;;1035295;28;20033;-77
2022/12/28 01:25:18;;;;;;;345.13;119.53;;;;;;;;;;1034476;28;20075;-77
2022/12/28 01:25:48;;;;;;;329.73;114.03;;;;;;;;;;1033750;28;20456;-78
2022/12/28 01:26:19;;;;;;;363.52;129.35;;;;;;;;;;1033976;28;20030;-77
2022/12/28 01:26:49;;;;;;;334.95;118.40;;;;;;;;;;1034830;28;20018;-78
2022/12/28 01:27:20;;;;;;;376.15;126.55;;;;;;;;;;1031350;28;20041;-78
2022/12/28 01:27:50;;;;;;;361.58;119.75;;;;;;;;;;1035177;28;20028;-78
2022/12/28 01:28:21;;;;;;;411.02;140.15;;;;;;;;;;1035247;28;20028;-79
2022/12/28 01:28:52;;;;;;;421.67;148.55;;;;;;;;;;1035560;28;20026;-79
2022/12/28 01:29:22;;;;;;;428.85;149.63;;;;;;;;;;1035862;28;20022;-79
2022/12/28 01:29:53;;;;;;;422.20;152.27;;;;;;;;;;1032021;28;20532;-78
2022/12/28 01:30:24;;;;;;;445.38;160.30;;;;;;;;;;1031263;28;20458;-79
2022/12/28 01:30:54;;;;;;;431.38;153.57;;;;;;;;;;1031434;28;20014;-80
2022/12/28 01:31:25;;;;;;;455.58;167.20;;;;;;;;;;1031152;28;20088;-77
2022/12/28 01:31:55;;;;;;;421.10;149.02;;;;;;;;;;1035669;28;20022;-79
2022/12/28 01:32:26;;;;;;;403.92;144.60;;;;;;;;;;1035567;28;20417;-77
2022/12/28 01:32:59;;;;;;;446.95;158.02;;;;;;;;;;1031027;28;20034;-77
2022/12/28 01:33:30;;;;;;;452.83;157.38;;;;;;;;;;1031739;28;20037;-77
2022/12/28 01:34:01;;;;;;;429.25;161.55;;;;;;;;;;1031246;28;20567;-78
2022/12/28 01:34:32;;;;;;;449.23;163.45;;;;;;;;;;1029622;28;20031;-77
2022/12/28 01:35:02;;;;;;;443.73;168.35;;;;;;;;;;1032360;28;20034;-78
2022/12/28 01:35:33;;;;;;;432.70;160.25;;;;;;;;;;1033802;28;20033;-78
2022/12/28 01:36:07;;;;;;;434.02;154.90;;;;;;;;;;1032373;28;20544;-77
2022/12/28 01:36:38;;;;;;;397.73;146.55;;;;;;;;;;1034970;28;20025;-77
2022/12/28 01:37:08;;;;;;;491.30;191.10;;;;;;;;;;1031564;28;20018;-77
2022/12/28 01:37:39;;;;;;;469.88;182.02;;;;;;;;;;1035175;28;20120;-78
2022/12/28 01:38:10;;;;;;;519.55;203.93;;;;;;;;;;1034376;28;20065;-76
2022/12/28 01:38:41;;;;;;;396.10;145.98;;;;;;;;;;1034506;28;20108;-77
2022/12/28 01:39:11;;;;;;;415.15;148.13;;;;;;;;;;1034171;28;20021;-77
2022/12/28 01:39:42;;;;;;;376.27;139.35;;;;;;;;;;1033867;28;20543;-77
2022/12/28 01:40:13;;;;;;;351.25;123.10;;;;;;;;;;1030807;28;20069;-77
2022/12/28 01:40:44;;;;;;;278.27;104.60;;;;;;;;;;1030858;28;20030;-77
2022/12/28 01:41:16;;;;;;;263.38;96.15;;;;;;;;;;1031960;28;20022;-77
2022/12/28 01:41:47;;;;;;;270.98;97.53;;;;;;;;;;1034741;28;20025;-76
2022/12/28 01:42:18;;;;;;;226.55;82.95;;;;;;;;;;1034962;28;20021;-77
2022/12/28 01:42:49;;;;;;;143.85;60.67;;;;;;;;;;1036066;28;20041;-79
2022/12/28 01:43:33;;;;;;;111.18;47.85;;;;;;;;;;1032550;28;20030;-77
2022/12/28 01:44:05;;;;;;;96.18;43.97;;;;;;;;;;1029323;28;20022;-79
2022/12/28 01:44:39;;;;;;;115.60;46.88;;;;;;;;;;1044082;23;20017;-79
2022/12/28 01:45:28;;;;;;;104.68;43.53;;;;;;;;;;1025471;28;20085;-78
2022/12/28 01:45:58;;;;;;;101.85;41.38;;;;;;;;;;1029055;28;20030;-80
2022/12/28 01:46:40;;;;;;;108.45;41.80;;;;;;;;;;1030534;28;20450;-78
2022/12/28 01:47:13;;;;;;;98.60;42.55;;;;;;;;;;1030629;28;20030;-81
2022/12/28 01:47:45;;;;;;;99.53;42.90;;;;;;;;;;1029863;28;20541;-79
2022/12/28 01:48:20;;;;;;;121.53;46.03;;;;;;;;;;1030652;28;20030;-78
2022/12/28 01:48:57;;;;;;;130.75;44.75;;;;;;;;;;1028814;28;20030;-78
2022/12/28 01:49:30;;;;;;;151.50;58.20;;;;;;;;;;1028774;28;20061;-78
2022/12/28 01:50:07;;;;;;;161.45;60.80;;;;;;;;;;1027522;28;20516;-77
2022/12/28 01:50:38;;;;;;;167.45;60.45;;;;;;;;;;1025864;28;20038;-77
2022/12/28 01:51:08;;;;;;;166.95;67.32;;;;;;;;;;1016435;28;20053;-78
2022/12/28 01:51:46;;;;;;;168.10;62.13;;;;;;;;;;1024899;28;20871;-77
2022/12/28 01:52:36;;;;;;;149.63;59.47;;;;;;;;;;1028928;28;20030;-78
2022/12/28 01:53:07;;;;;;;130.50;48.65;;;;;;;;;;1031297;28;20065;-77
2022/12/28 01:53:38;;;;;;;144.60;51.03;;;;;;;;;;1032959;28;20496;-78
2022/12/28 01:54:08;;;;;;;146.75;59.33;;;;;;;;;;1029829;28;20034;-78
2022/12/28 01:54:41;;;;;;;131.43;50.95;;;;;;;;;;1025778;28;20041;-78
2022/12/28 01:55:16;;;;;;;112.50;45.55;;;;;;;;;;1025771;28;20037;-78
2022/12/28 01:55:47;;;;;;;83.00;32.08;;;;;;;;;;1020649;28;20023;-77
2022/12/28 01:56:18;;;;;;;86.45;34.97;;;;;;;;;;1025156;28;20022;-78
2022/12/28 01:56:49;;;;;;;74.53;33.05;;;;;;;;;;1029894;28;20095;-78
2022/12/28 01:57:25;;;;;;;62.75;25.77;;;;;;;;;;1030079;28;20038;-78
2022/12/28 01:58:01;;;;;;;80.35;32.45;;;;;;;;;;1033408;28;20030;-78
2022/12/28 01:58:33;;;;;;;110.72;40.08;;;;;;;;;;1028420;28;20073;-78
2022/12/28 01:59:03;;;;;;;105.88;42.30;;;;;;;;;;1029927;28;20018;-76
2022/12/28 01:59:38;;;;;;;130.15;48.03;;;;;;;;;;1029216;28;20038;-78
2022/12/28 02:00:10;;;;;;;106.05;43.55;;;;;;;;;;1028229;28;20034;-78
2022/12/28 02:00:41;;;;;;;99.10;42.65;;;;;;;;;;1028680;28;20118;-79
2022/12/28 02:01:11;;;;;;;101.80;39.83;;;;;;;;;;1028796;28;20192;-79
2022/12/28 02:01:42;;;;;;;89.55;36.70;;;;;;;;;;1030482;28;20488;-80
2022/12/28 02:02:13;;;;;;;85.78;36.72;;;;;;;;;;1030120;28;20077;-78
2022/12/28 02:02:47;;;;;;;92.93;35.90;;;;;;;;;;1027159;28;20093;-77
2022/12/28 02:03:20;;;;;;;94.30;39.42;;;;;;;;;;1026477;28;20023;-78
2022/12/28 02:03:51;;;;;;;87.70;37.65;;;;;;;;;;1024808;28;20520;-78
2022/12/28 02:04:21;;;;;;;83.63;37.67;;;;;;;;;;1026774;28;20414;-78
2022/12/28 02:04:52;;;;;;;85.68;38.60;;;;;;;;;;1029397;28;20180;-79
2022/12/28 02:05:24;;;;;;;98.63;43.15;;;;;;;;;;1030901;28;20022;-79
2022/12/28 02:05:56;;;;;;;95.05;45.88;;;;;;;;;;1028488;28;20053;-77
2022/12/28 02:06:26;;;;;;;91.82;41.67;;;;;;;;;;1028525;28;20033;-77
2022/12/28 02:06:57;;;;;;;103.32;47.10;;;;;;;;;;1030278;28;20030;-78
2022/12/28 02:07:54;;;;;;;115.25;54.13;;;;;;;;;;1029150;28;20516;-78
2022/12/28 02:08:28;;;;;;;108.13;48.83;;;;;;;;;;1028841;28;20621;-76
2022/12/28 02:09:03;;;;;;;92.25;45.85;;;;;;;;;;1028271;28;20083;-76
2022/12/28 02:09:41;;;;;;;111.38;43.70;;;;;;;;;;1025000;28;20494;-78
2022/12/28 02:10:11;;;;;;;129.07;45.50;;;;;;;;;;1026844;28;20415;-78
2022/12/28 02:10:48;;;;;;;159.80;53.65;;;;;;;;;;1028589;28;20033;-77
2022/12/28 02:11:19;;;;;;;120.30;46.20;;;;;;;;;;1032352;28;20037;-77
2022/12/28 02:11:50;;;;;;;115.72;44.53;;;;;;;;;;1030122;28;20569;-77
2022/12/28 02:12:21;;;;;;;89.88;40.80;;;;;;;;;;1026043;28;20035;-78
2022/12/28 02:12:52;;;;;;;87.72;43.20;;;;;;;;;;1025959;28;20475;-76
2022/12/28 02:13:23;;;;;;;86.10;39.88;;;;;;;;;;1030753;28;20049;-76
2022/12/28 02:13:55;;;;;;;90.38;40.67;;;;;;;;;;1028976;28;20177;-78
2022/12/28 02:14:26;;;;;;;120.15;47.22;;;;;;;;;;1029697;28;20076;-78
2022/12/28 02:14:56;;;;;;;83.88;35.67;;;;;;;;;;1029747;28;20069;-78
2022/12/28 02:15:27;;;;;;;112.00;44.50;;;;;;;;;;1029653;28;20195;-78
2022/12/28 02:15:58;;;;;;;111.28;44.22;;;;;;;;;;1028566;28;20035;-79
2022/12/28 02:16:28;;;;;;;116.03;49.30;;;;;;;;;;1026703;28;20478;-79
2022/12/28 02:16:59;;;;;;;121.70;47.05;;;;;;;;;;1026687;28;20066;-80
2022/12/28 02:17:29;;;;;;;126.13;50.47;;;;;;;;;;1030944;28;20098;-79
2022/12/28 02:18:00;;;;;;;135.27;51.25;;;;;;;;;;1030766;28;20026;-79
2022/12/28 02:18:31;;;;;;;105.60;48.38;;;;;;;;;;1031292;28;20010;-78
2022/12/28 02:19:02;;;;;;;133.95;57.30;;;;;;;;;;1031469;28;20029;-77
2022/12/28 02:19:44;;;;;;;134.25;57.00;;;;;;;;;;1030714;28;20030;-78
2022/12/28 02:20:16;;;;;;;141.45;55.42;;;;;;;;;;1031601;28;20026;-80
2022/12/28 02:21:05;;;;;;;145.05;58.65;;;;;;;;;;1030267;28;20026;-79
2022/12/28 02:21:54;;;;;;;152.85;59.58;;;;;;;;;;1049507;23;20116;-78
2022/12/28 02:22:34;;;;;;;160.10;63.97;;;;;;;;;;1030469;28;20026;-78
2022/12/28 02:23:16;;;;;;;150.25;60.00;;;;;;;;;;1030443;28;20025;-78
2022/12/28 02:24:02;;;;;;;147.80;61.13;;;;;;;;;;1030620;28;20034;-79
2022/12/28 02:24:45;;;;;;;130.23;49.35;;;;;;;;;;1030321;28;20022;-78
2022/12/28 02:25:34;;;;;;;122.68;51.63;;;;;;;;;;1026542;28;20522;-78
2022/12/28 02:26:23;;;;;;;123.77;53.67;;;;;;;;;;1023032;29;20023;-78
2022/12/28 02:26:53;;;;;;;146.75;55.60;;;;;;;;;;1033519;23;20754;-78
2022/12/28 02:27:36;;;;;;;150.90;54.67;;;;;;;;;;1028918;28;20030;-78
2022/12/28 02:28:29;;;;;;;139.48;57.75;;;;;;;;;;1029272;28;20060;-78
2022/12/28 02:29:15;;;;;;;146.75;56.80;;;;;;;;;;1029746;28;20210;-77
2022/12/28 02:29:49;;;;;;;117.25;48.28;;;;;;;;;;1031449;28;20028;-78
2022/12/28 02:30:20;;;;;;;135.85;57.28;;;;;;;;;;1036270;28;20018;-77
2022/12/28 02:30:56;;;;;;;120.40;57.60;;;;;;;;;;1031240;28;20120;-77
2022/12/28 02:31:35;;;;;;;132.40;60.75;;;;;;;;;;1029803;28;20027;-77
2022/12/28 02:32:25;;;;;;;127.43;56.92;;;;;;;;;;1030027;28;20537;-80
2022/12/28 02:33:13;;;;;;;154.30;62.97;;;;;;;;;;1022964;29;20084;-77
2022/12/28 02:33:57;;;;;;;163.15;59.47;;;;;;;;;;1027105;28;20910;-76
2022/12/28 02:34:33;;;;;;;135.75;65.30;;;;;;;;;;1026032;28;20032;-77
2022/12/28 02:35:04;;;;;;;135.57;56.30;;;;;;;;;;1031165;28;20094;-77
2022/12/28 02:35:37;;;;;;;174.10;67.03;;;;;;;;;;1030902;28;20018;-78
2022/12/28 02:36:15;;;;;;;145.32;61.92;;;;;;;;;;1025401;28;20027;-76
2022/12/28 02:36:49;;;;;;;132.77;53.60;;;;;;;;;;1025269;28;20086;-78
2022/12/28 02:37:46;;;;;;;149.80;62.35;;;;;;;;;;1023283;28;20124;-78
2022/12/28 02:38:19;;;;;;;153.43;60.58;;;;;;;;;;1022193;28;20201;-78
2022/12/28 02:38:50;;;;;;;151.23;61.75;;;;;;;;;;1027433;28;20105;-79
2022/12/28 02:39:23;;;;;;;117.95;46.15;;;;;;;;;;1023271;28;20490;-79
2022/12/28 02:39:57;;;;;;;140.63;55.58;;;;;;;;;;1030580;23;20057;-77
2022/12/28 02:40:33;;;;;;;130.45;51.10;;;;;;;;;;1028091;28;20026;-77
2022/12/28 02:41:14;;;;;;;98.55;39.60;;;;;;;;;;1030309;28;20033;-78
2022/12/28 02:41:46;;;;;;;114.78;51.65;;;;;;;;;;1029066;28;20030;-77
2022/12/28 02:42:17;;;;;;;134.43;55.03;;;;;;;;;;1029733;28;20443;-78
2022/12/28 02:42:48;;;;;;;123.95;49.97;;;;;;;;;;1026291;28;20131;-78
2022/12/28 02:43:19;;;;;;;138.40;49.72;;;;;;;;;;1025388;28;20385;-78
2022/12/28 02:43:50;;;;;;;123.80;51.28;;;;;;;;;;1028793;28;20835;-78
2022/12/28 02:50:47;;;;;;;142.82;48.08;;;;;;;;;;1026494;28;21310;-78
2022/12/28 02:51:27;;;;;;;113.50;44.22;;;;;;;;;;1025816;28;20069;-78
2022/12/28 02:52:06;;;;;;;127.80;44.53;;;;;;;;;;1024934;28;20049;-78
2022/12/28 02:52:40;;;;;;;147.93;57.03;;;;;;;;;;1023752;28;20110;-78
2022/12/28 02:53:28;;;;;;;182.32;55.08;;;;;;;;;;1019424;29;20315;-78
2022/12/28 02:54:06;;;;;;;134.48;51.83;;;;;;;;;;1026261;28;20423;-78
2022/12/28 02:56:30;;;;;;;133.85;47.47;;;;;;;;;;1025977;28;20031;-78
2022/12/28 02:57:08;;;;;;;132.15;50.70;;;;;;;;;;1030284;28;20161;-78
2022/12/28 02:57:47;;;;;;;125.20;42.67;;;;;;;;;;1029638;28;20113;-77
2022/12/28 02:58:51;;;;;;;151.05;52.08;;;;;;;;;;1029239;28;20019;-78
2022/12/28 02:59:40;;;;;;;135.32;49.60;;;;;;;;;;1015298;29;20106;-78
2022/12/28 03:00:31;;;;;;;143.75;49.67;;;;;;;;;;1020812;28;20041;-77
2022/12/28 03:01:20;;;;;;;113.80;47.25;;;;;;;;;;1024245;28;20046;-78
2022/12/28 03:01:50;;;;;;;181.23;56.05;;;;;;;;;;1025257;28;20479;-78
2022/12/28 03:02:30;;;;;;;154.85;57.83;;;;;;;;;;1026184;28;20376;-78
2022/12/28 03:03:29;;;;;;;169.63;56.60;;;;;;;;;;1021780;28;20046;-77
2022/12/28 03:04:09;;;;;;;198.95;66.85;;;;;;;;;;1013508;29;20028;-77
2022/12/28 03:04:47;;;;;;;188.80;62.72;;;;;;;;;;1020736;28;20114;-78
2022/12/28 03:08:13;;;;;;;182.15;62.05;;;;;;;;;;1021241;28;20543;-79
2022/12/28 03:08:37;;;;;;;181.63;55.13;;;;;;;;;;1039689;23;20051;-79
2022/12/28 03:09:28;;;;;;;163.75;55.38;;;;;;;;;;1036143;28;20041;-79
2022/12/28 03:09:58;;;;;;;147.02;53.05;;;;;;;;;;1035133;28;20068;-79
2022/12/28 03:10:32;;;;;;;155.60;52.33;;;;;;;;;;1035591;28;20102;-79
2022/12/28 03:11:03;;;;;;;153.05;51.60;;;;;;;;;;1036012;28;20109;-79
2022/12/28 03:11:38;;;;;;;166.15;54.08;;;;;;;;;;1036488;28;20448;-78
2022/12/28 03:12:11;;;;;;;144.15;55.08;;;;;;;;;;1033120;28;20015;-78
2022/12/28 03:12:45;;;;;;;152.40;50.08;;;;;;;;;;1032349;28;20022;-79
2022/12/28 03:13:41;;;;;;;114.97;44.58;;;;;;;;;;1034220;28;20441;-79
2022/12/28 03:14:18;;;;;;;139.27;44.35;;;;;;;;;;1034008;28;20036;-79
2022/12/28 03:14:52;;;;;;;83.07;32.97;;;;;;;;;;1033780;28;20029;-79
2022/12/28 03:15:29;;;;;;;88.63;32.42;;;;;;;;;;1033830;28;21256;-79
2022/12/28 03:16:03;;;;;;;100.90;37.38;;;;;;;;;;1035466;28;20034;-79
2022/12/28 03:31:05;;;;;;;63.40;19.80;;;;;;;;;;1034247;28;20505;-78
2022/12/28 03:31:38;;;;;;;56.38;18.73;;;;;;;;;;1029899;28;20030;-77
2022/12/28 03:32:09;;;;;;;50.17;21.13;;;;;;;;;;1028719;28;20856;-77
2022/12/28 03:32:40;;;;;;;39.92;20.35;;;;;;;;;;1031827;28;20391;-78
2022/12/28 03:33:14;;;;;;;39.60;18.85;;;;;;;;;;1032708;28;20033;-78
2022/12/28 03:33:49;;;;;;;44.63;19.15;;;;;;;;;;1033180;28;20076;-77
2022/12/28 03:34:20;;;;;;;33.45;18.33;;;;;;;;;;1029385;28;20028;-77
2022/12/28 03:34:51;;;;;;;51.95;20.10;;;;;;;;;;1027003;28;20034;-77
2022/12/28 03:35:26;;;;;;;43.55;17.05;;;;;;;;;;1028448;28;20061;-77
2022/12/28 03:36:03;;;;;;;50.40;16.98;;;;;;;;;;1031761;28;20029;-77
2022/12/28 03:36:36;;;;;;;43.42;17.25;;;;;;;;;;1031605;28;20413;-77
2022/12/28 03:37:33;;;;;;;61.33;17.15;;;;;;;;;;1034109;28;20014;-77